Time;durP1;ratioP1;P1;durP2;ratioP2;P2;SDS_P1;SDS_P2;PMS_P1;PMS_P2;Temp;Humidity;BMP_temperature;BMP_pressure;BME280_temperature;BME280_humidity;BME280_pressure;Samples;Min_cycle;Max_cycle;Signal;HPM_P1;HPM_P2
2022/10/04 00:00:10;;;;;;;;;;;12.00;99.90;;;;;;5061557;28;20324;-74
2022/10/04 00:02:36;;;;;;;;;;;12.00;99.90;;;;;;5062566;28;19920;-74
2022/10/04 00:05:06;;;;;;;;;;;12.10;99.90;;;;;;5074984;28;20333;-74
2022/10/04 00:07:58;;;;;;;;;;;12.10;99.90;;;;;;5080373;28;20381;-74
2022/10/04 00:10:27;;;;;;;;;;;12.10;99.90;;;;;;5074089;28;19920;-74
2022/10/04 00:13:01;;;;;;;;;;;12.20;99.90;;;;;;5081447;28;19980;-74
2022/10/04 00:15:30;;;;;;;;;;;12.30;99.90;;;;;;5079009;28;19963;-74
2022/10/04 00:18:05;;;;;;;;;;;12.30;99.90;;;;;;5082273;28;19950;-74
2022/10/04 00:20:49;;;;;;;;;;;12.40;99.90;;;;;;5081698;28;20302;-74
2022/10/04 00:23:23;;;;;;;;;;;12.50;99.90;;;;;;5078752;28;19977;-74
2022/10/04 00:25:55;;;;;;;;;;;12.60;99.90;;;;;;5082171;28;19954;-74
2022/10/04 00:28:20;;;;;;;;;;;12.60;99.90;;;;;;5077286;28;19916;-74
2022/10/04 00:31:05;;;;;;;;;;;12.70;99.90;;;;;;5073420;28;19923;-74
2022/10/04 00:33:38;;;;;;;;;;;12.80;99.90;;;;;;5070084;28;20303;-75
2022/10/04 00:36:22;;;;;;;;;;;12.90;99.90;;;;;;5081224;28;19928;-74
2022/10/04 00:39:06;;;;;;;;;;;12.90;99.90;;;;;;5081477;28;19934;-74
2022/10/04 00:41:47;;;;;;;;;;;13.00;99.90;;;;;;5079507;28;19951;-74
2022/10/04 00:44:18;;;;;;;;;;;13.00;99.90;;;;;;5076544;28;19957;-74
2022/10/04 00:46:46;;;;;;;;;;;13.00;99.90;;;;;;5082088;28;19977;-73
2022/10/04 00:49:12;;;;;;;;;;;13.00;99.90;;;;;;5062748;28;19936;-74
2022/10/04 00:51:41;;;;;;;;;;;13.10;99.90;;;;;;5067669;28;19912;-74
2022/10/04 00:54:06;;;;;;;;;;;13.20;99.90;;;;;;5079590;28;19965;-75
2022/10/04 00:56:55;;;;;;;;;;;13.20;99.90;;;;;;5078439;28;19997;-74
2022/10/04 00:59:26;;;;;;;;;;;13.30;99.90;;;;;;5077257;28;19912;-74
2022/10/04 01:01:54;;;;;;;;;;;13.40;99.90;;;;;;5080385;28;20382;-74
2022/10/04 01:04:23;;;;;;;;;;;13.50;99.90;;;;;;5069887;28;19989;-74
2022/10/04 01:06:49;;;;;;;;;;;13.50;99.90;;;;;;5078912;28;19916;-74
2022/10/04 01:09:15;;;;;;;;;;;13.50;99.90;;;;;;5078728;28;19924;-74
2022/10/04 01:11:43;;;;;;;;;;;13.50;99.90;;;;;;5069163;28;20383;-74
2022/10/04 01:14:20;;;;;;;;;;;13.60;99.90;;;;;;5067366;28;19912;-74
2022/10/04 01:16:45;;;;;;;;;;;13.60;99.90;;;;;;5078884;28;20071;-74
2022/10/04 01:19:17;;;;;;;;;;;13.60;99.90;;;;;;5081700;28;20393;-74
2022/10/04 01:21:45;;;;;;;;;;;13.60;99.90;;;;;;5075685;28;20015;-74
2022/10/04 01:24:11;;;;;;;;;;;13.70;99.90;;;;;;5068158;28;19920;-74
2022/10/04 01:26:40;;;;;;;;;;;13.70;99.90;;;;;;5080435;28;19953;-74
2022/10/04 01:29:35;;;;;;;;;;;13.80;99.90;;;;;;5077160;28;20348;-74
2022/10/04 01:32:01;;;;;;;;;;;13.80;99.90;;;;;;5056171;28;20247;-74
2022/10/04 01:34:28;;;;;;;;;;;13.90;99.90;;;;;;5071782;28;19916;-74
2022/10/04 01:36:55;;;;;;;;;;;14.00;99.90;;;;;;5079439;28;20298;-74
2022/10/04 01:39:22;;;;;;;;;;;14.20;99.90;;;;;;5068401;28;19923;-74
2022/10/04 01:42:03;;;;;;;;;;;14.30;99.90;;;;;;5060437;28;19917;-74
2022/10/04 01:44:36;;;;;;;;;;;14.30;99.90;;;;;;5073417;28;19919;-74
2022/10/04 01:47:05;;;;;;;;;;;14.40;99.90;;;;;;5080787;28;20378;-74
2022/10/04 01:49:33;;;;;;;;;;;14.50;99.90;;;;;;5069875;28;19916;-74
2022/10/04 01:52:13;;;;;;;;;;;14.70;99.90;;;;;;5076584;28;19936;-74
2022/10/04 01:54:43;;;;;;;;;;;14.90;99.90;;;;;;5078036;28;19950;-74
2022/10/04 01:57:22;;;;;;;;;;;15.00;99.90;;;;;;5063453;28;20429;-74
2022/10/04 01:59:50;;;;;;;;;;;15.10;99.90;;;;;;5075510;28;19916;-74
2022/10/04 02:02:30;;;;;;;;;;;15.20;99.90;;;;;;5070477;28;20283;-74
2022/10/04 02:04:56;;;;;;;;;;;15.30;99.90;;;;;;5074512;28;19920;-74
2022/10/04 02:07:25;;;;;;;;;;;15.40;99.90;;;;;;5061769;28;19920;-74
2022/10/04 02:09:54;;;;;;;;;;;15.40;99.90;;;;;;5081199;28;19990;-74
2022/10/04 02:12:20;;;;;;;;;;;15.50;99.90;;;;;;5077843;28;19924;-75
2022/10/04 02:14:51;;;;;;;;;;;15.50;99.90;;;;;;5078556;28;19964;-74
2022/10/04 02:17:17;;;;;;;;;;;15.50;99.90;;;;;;5059433;28;19931;-74
2022/10/04 02:19:43;;;;;;;;;;;15.50;99.90;;;;;;5072793;28;20260;-74
2022/10/04 02:22:10;;;;;;;;;;;15.60;99.90;;;;;;5060884;28;20386;-74
2022/10/04 02:24:43;;;;;;;;;;;15.70;99.90;;;;;;5071568;28;20422;-75
2022/10/04 02:27:08;;;;;;;;;;;15.70;99.90;;;;;;5059994;28;19993;-75
2022/10/04 02:29:34;;;;;;;;;;;15.80;99.90;;;;;;5073871;28;20217;-74
2022/10/04 02:34:46;;;;;;;;;;;15.80;99.90;;;;;;5076156;28;19977;-74
2022/10/04 02:37:12;;;;;;;;;;;15.90;99.90;;;;;;5073391;28;19966;-74
2022/10/04 02:39:43;;;;;;;;;;;15.90;99.90;;;;;;5077036;28;19916;-74
2022/10/04 02:42:14;;;;;;;;;;;15.90;99.90;;;;;;5076128;28;19983;-74
2022/10/04 02:44:49;;;;;;;;;;;15.80;99.90;;;;;;5080249;28;19924;-74
2022/10/04 02:47:23;;;;;;;;;;;15.80;99.90;;;;;;5091596;28;19997;-74
2022/10/04 02:49:59;;;;;;;;;;;15.90;99.90;;;;;;5076624;28;20256;-75
2022/10/04 02:52:29;;;;;;;;;;;15.80;99.90;;;;;;5076952;28;19953;-75
2022/10/04 02:55:01;;;;;;;;;;;15.80;99.90;;;;;;5099702;28;19931;-74
2022/10/04 02:57:28;;;;;;;;;;;15.90;99.90;;;;;;5099977;28;19923;-74
2022/10/04 03:00:01;;;;;;;;;;;15.90;99.90;;;;;;5108719;28;20388;-74
2022/10/04 03:02:28;;;;;;;;;;;15.80;99.90;;;;;;5093413;28;20263;-74
2022/10/04 03:04:57;;;;;;;;;;;15.80;99.90;;;;;;5074950;28;19988;-74
2022/10/04 03:07:23;;;;;;;;;;;15.80;99.90;;;;;;5098130;28;20419;-74
2022/10/04 03:09:48;;;;;;;;;;;15.70;99.90;;;;;;5091492;28;19939;-74
2022/10/04 03:12:14;;;;;;;;;;;15.70;99.90;;;;;;5082802;28;20148;-74
2022/10/04 03:14:41;;;;;;;;;;;15.70;99.90;;;;;;5077879;28;19920;-74
2022/10/04 03:17:06;;;;;;;;;;;15.70;99.90;;;;;;5100494;28;19916;-74
2022/10/04 03:19:33;;;;;;;;;;;15.70;99.90;;;;;;5097437;28;19911;-74
2022/10/04 03:22:01;;;;;;;;;;;15.70;99.90;;;;;;5083776;28;20411;-74
2022/10/04 03:24:28;;;;;;;;;;;15.70;99.90;;;;;;5097200;28;20471;-74
2022/10/04 03:26:55;;;;;;;;;;;15.70;99.90;;;;;;5073133;28;20221;-74
2022/10/04 03:29:21;;;;;;;;;;;15.70;99.90;;;;;;5097757;28;19922;-74
2022/10/04 03:31:48;;;;;;;;;;;15.70;99.90;;;;;;5079171;28;20389;-74
2022/10/04 03:34:23;;;;;;;;;;;15.70;99.90;;;;;;5098541;28;19911;-75
2022/10/04 03:36:51;;;;;;;;;;;15.80;99.90;;;;;;5099501;28;19923;-74
2022/10/04 03:39:25;;;;;;;;;;;15.80;99.90;;;;;;5095188;28;20000;-74
2022/10/04 03:41:52;;;;;;;;;;;15.90;99.90;;;;;;5078847;28;19916;-74
2022/10/04 03:44:18;;;;;;;;;;;15.90;99.90;;;;;;5088929;28;19924;-74
2022/10/04 03:46:44;;;;;;;;;;;15.90;99.90;;;;;;5077832;28;19928;-74
2022/10/04 03:49:11;;;;;;;;;;;16.00;99.90;;;;;;5083367;28;19999;-75
2022/10/04 03:51:41;;;;;;;;;;;16.00;99.90;;;;;;5087296;28;19973;-74
2022/10/04 03:54:08;;;;;;;;;;;16.00;99.90;;;;;;5097242;28;19911;-75
2022/10/04 03:56:35;;;;;;;;;;;16.10;99.90;;;;;;5079451;28;19924;-74
2022/10/04 03:59:05;;;;;;;;;;;16.10;99.90;;;;;;5075027;28;19924;-74
2022/10/04 04:01:30;;;;;;;;;;;16.10;99.90;;;;;;5095561;28;20309;-74
2022/10/04 04:03:59;;;;;;;;;;;16.00;99.90;;;;;;5095368;28;20164;-74
2022/10/04 04:06:29;;;;;;;;;;;16.00;99.90;;;;;;5083892;28;19923;-74
2022/10/04 04:08:55;;;;;;;;;;;16.00;99.90;;;;;;5101454;28;19927;-75
2022/10/04 04:11:23;;;;;;;;;;;15.90;99.90;;;;;;5075326;28;20405;-74
2022/10/04 04:14:07;;;;;;;;;;;16.00;99.90;;;;;;5064530;28;19915;-74
2022/10/04 04:16:33;;;;;;;;;;;16.10;99.90;;;;;;5087747;28;19935;-74
2022/10/04 04:19:00;;;;;;;;;;;16.10;99.90;;;;;;5096254;28;20379;-75
2022/10/04 04:21:26;;;;;;;;;;;16.10;99.90;;;;;;5098732;28;20425;-74
2022/10/04 04:23:52;;;;;;;;;;;16.10;99.90;;;;;;5094047;28;19957;-74
2022/10/04 04:26:33;;;;;;;;;;;16.10;99.90;;;;;;5095893;28;19924;-74
2022/10/04 04:29:31;;;;;;;;;;;16.20;99.90;;;;;;5083610;28;19916;-74
2022/10/04 04:32:04;;;;;;;;;;;16.20;99.90;;;;;;5035333;28;19923;-74
2022/10/04 04:34:31;;;;;;;;;;;16.30;99.90;;;;;;5083007;28;19924;-74
2022/10/04 04:36:59;;;;;;;;;;;16.20;99.90;;;;;;5084412;28;19916;-74
2022/10/04 04:39:33;;;;;;;;;;;16.20;99.90;;;;;;5089613;28;19945;-74
2022/10/04 04:42:01;;;;;;;;;;;16.20;99.90;;;;;;5083336;28;19919;-74
2022/10/04 04:44:27;;;;;;;;;;;16.20;99.90;;;;;;5082946;28;19915;-74
2022/10/04 04:46:59;;;;;;;;;;;16.20;99.90;;;;;;5087939;28;20268;-74
2022/10/04 04:49:26;;;;;;;;;;;16.20;99.90;;;;;;5083653;28;19917;-74
2022/10/04 04:51:51;;;;;;;;;;;16.20;99.90;;;;;;5095724;28;19916;-74
2022/10/04 04:54:18;;;;;;;;;;;16.20;99.90;;;;;;5101211;28;20376;-75
2022/10/04 04:56:46;;;;;;;;;;;16.20;99.90;;;;;;5101847;28;19972;-74
2022/10/04 04:59:12;;;;;;;;;;;16.20;99.90;;;;;;5094870;28;19919;-74
2022/10/04 05:01:43;;;;;;;;;;;16.20;99.90;;;;;;5103108;28;19926;-74
2022/10/04 05:04:08;;;;;;;;;;;16.20;99.90;;;;;;5075889;28;20596;-74
2022/10/04 05:06:34;;;;;;;;;;;16.20;99.90;;;;;;5102518;28;19920;-74
2022/10/04 05:09:00;;;;;;;;;;;16.30;99.90;;;;;;5079785;28;19980;-74
2022/10/04 05:11:29;;;;;;;;;;;16.30;99.90;;;;;;5072441;28;19928;-75
2022/10/04 05:14:00;;;;;;;;;;;16.20;99.90;;;;;;5096751;28;19931;-74
2022/10/04 05:16:31;;;;;;;;;;;16.10;99.90;;;;;;5083789;28;19928;-74
2022/10/04 05:19:01;;;;;;;;;;;16.00;99.90;;;;;;5085917;28;20394;-74
2022/10/04 05:21:30;;;;;;;;;;;16.00;99.90;;;;;;5101954;28;20014;-74
2022/10/04 05:23:58;;;;;;;;;;;16.00;99.90;;;;;;5090462;28;20594;-74
2022/10/04 05:26:26;;;;;;;;;;;16.00;99.90;;;;;;5081440;28;19931;-74
2022/10/04 05:28:51;;;;;;;;;;;16.00;99.90;;;;;;5080186;28;19916;-74
2022/10/04 05:31:36;;;;;;;;;;;15.90;99.90;;;;;;5083370;28;19930;-74
2022/10/04 05:34:05;;;;;;;;;;;15.90;99.90;;;;;;5081550;28;19961;-74
2022/10/04 05:37:04;;;;;;;;;;;15.80;99.90;;;;;;5099145;28;19920;-74
2022/10/04 05:39:30;;;;;;;;;;;15.80;99.90;;;;;;5064803;28;19947;-74
2022/10/04 05:41:56;;;;;;;;;;;15.70;99.90;;;;;;5081696;28;20450;-74
2022/10/04 05:44:26;;;;;;;;;;;15.70;99.90;;;;;;5076323;28;19981;-74
2022/10/04 05:46:56;;;;;;;;;;;15.70;99.90;;;;;;5080937;28;19931;-74
2022/10/04 05:49:23;;;;;;;;;;;15.60;99.90;;;;;;5083359;28;19911;-75
2022/10/04 05:52:00;;;;;;;;;;;15.60;99.90;;;;;;5072172;28;19916;-74
2022/10/04 05:54:27;;;;;;;;;;;15.60;99.90;;;;;;5084499;28;20012;-74
2022/10/04 05:57:11;;;;;;;;;;;15.60;99.90;;;;;;5094104;28;19920;-74
2022/10/04 05:59:54;;;;;;;;;;;15.50;99.90;;;;;;5105686;27;19916;-74
2022/10/04 06:02:20;;;;;;;;;;;15.40;99.90;;;;;;5079405;28;19938;-75
2022/10/04 06:04:51;;;;;;;;;;;15.40;99.90;;;;;;5065400;28;20363;-74
2022/10/04 06:07:22;;;;;;;;;;;15.40;99.90;;;;;;5075504;28;19915;-74
2022/10/04 06:10:02;;;;;;;;;;;15.40;99.90;;;;;;5100972;28;20104;-74
2022/10/04 06:12:32;;;;;;;;;;;15.30;99.90;;;;;;5078904;28;19916;-74
2022/10/04 06:15:07;;;;;;;;;;;15.30;99.90;;;;;;5077560;28;19916;-74
2022/10/04 06:17:35;;;;;;;;;;;15.30;99.90;;;;;;5078259;28;19966;-74
2022/10/04 06:20:10;;;;;;;;;;;15.30;99.90;;;;;;5080431;28;19918;-74
2022/10/04 06:22:44;;;;;;;;;;;15.20;99.90;;;;;;5100242;28;20278;-74
2022/10/04 06:25:19;;;;;;;;;;;15.20;99.90;;;;;;5080199;28;19915;-74
2022/10/04 06:27:44;;;;;;;;;;;15.20;99.90;;;;;;5092262;28;19916;-74
2022/10/04 06:30:14;;;;;;;;;;;15.20;99.90;;;;;;5094615;28;20248;-74
2022/10/04 06:32:58;;;;;;;;;;;15.30;99.90;;;;;;5101256;28;19912;-74
2022/10/04 06:35:42;;;;;;;;;;;15.30;99.90;;;;;;5098609;28;19937;-74
2022/10/04 06:38:14;;;;;;;;;;;15.30;99.90;;;;;;5089587;28;19969;-74
2022/10/04 06:40:42;;;;;;;;;;;15.30;99.90;;;;;;5077576;28;19916;-74
2022/10/04 06:43:14;;;;;;;;;;;15.30;99.90;;;;;;5062139;28;19916;-74
2022/10/04 06:45:42;;;;;;;;;;;15.30;99.90;;;;;;5075734;28;20254;-74
2022/10/04 06:48:26;;;;;;;;;;;15.30;99.90;;;;;;5077246;28;19924;-74
2022/10/04 06:51:06;;;;;;;;;;;15.20;99.90;;;;;;5074327;28;19938;-74
2022/10/04 06:53:50;;;;;;;;;;;15.20;99.90;;;;;;5063710;28;20371;-74
2022/10/04 06:56:22;;;;;;;;;;;15.20;99.90;;;;;;5088619;28;20370;-74
2022/10/04 06:59:06;;;;;;;;;;;15.20;99.90;;;;;;5066230;28;19948;-74
2022/10/04 07:01:33;;;;;;;;;;;15.30;99.90;;;;;;5068892;28;19943;-74
2022/10/04 07:04:10;;;;;;;;;;;15.30;99.90;;;;;;5071829;28;19924;-74
2022/10/04 07:06:39;;;;;;;;;;;15.40;99.90;;;;;;5071329;28;20007;-75
2022/10/04 07:09:11;;;;;;;;;;;15.50;99.90;;;;;;5071215;28;20411;-75
2022/10/04 07:11:44;;;;;;;;;;;15.50;99.90;;;;;;5063333;28;20368;-75
2022/10/04 07:14:39;;;;;;;;;;;15.60;99.90;;;;;;5070259;28;19925;-75
2022/10/04 07:17:11;;;;;;;;;;;15.60;99.90;;;;;;5053449;28;19931;-74
2022/10/04 07:19:47;;;;;;;;;;;15.70;99.90;;;;;;5074588;28;20292;-74
2022/10/04 07:22:13;;;;;;;;;;;15.70;99.90;;;;;;5088839;28;20074;-74
2022/10/04 07:24:46;;;;;;;;;;;15.80;99.90;;;;;;5085210;28;20279;-74
2022/10/04 07:27:25;;;;;;;;;;;15.90;99.90;;;;;;5077601;28;19923;-74
2022/10/04 07:29:57;;;;;;;;;;;16.00;99.90;;;;;;5066317;28;19916;-74
2022/10/04 07:32:32;;;;;;;;;;;16.10;99.90;;;;;;5072791;28;19924;-74
2022/10/04 07:35:03;;;;;;;;;;;16.20;99.90;;;;;;5074516;28;19917;-75
2022/10/04 07:37:32;;;;;;;;;;;16.30;99.90;;;;;;5073320;28;19920;-74
2022/10/04 07:40:01;;;;;;;;;;;16.40;99.90;;;;;;5080379;28;20383;-75
2022/10/04 07:42:33;;;;;;;;;;;16.50;99.90;;;;;;5082136;28;20450;-74
2022/10/04 07:44:59;;;;;;;;;;;16.60;99.90;;;;;;5074901;28;19921;-74
2022/10/04 07:47:26;;;;;;;;;;;16.60;99.90;;;;;;5085240;28;20294;-75
2022/10/04 07:49:56;;;;;;;;;;;16.60;99.90;;;;;;5077466;28;19916;-74
2022/10/04 07:52:30;;;;;;;;;;;16.70;99.90;;;;;;5075916;28;19943;-74
2022/10/04 07:55:02;;;;;;;;;;;16.90;99.90;;;;;;5077337;28;19927;-74
2022/10/04 07:57:43;;;;;;;;;;;17.00;99.90;;;;;;5073875;28;20712;-74
2022/10/04 08:00:16;;;;;;;;;;;17.00;99.90;;;;;;5079015;28;19916;-74
2022/10/04 08:02:53;;;;;;;;;;;17.10;99.90;;;;;;5080926;28;20119;-74
2022/10/04 08:05:23;;;;;;;;;;;17.30;99.90;;;;;;5077193;28;20430;-75
2022/10/04 08:07:51;;;;;;;;;;;17.40;99.90;;;;;;5069917;28;20003;-74
2022/10/04 08:10:24;;;;;;;;;;;17.40;99.90;;;;;;5065430;28;21892;-74
2022/10/04 08:13:02;;;;;;;;;;;17.50;99.90;;;;;;5069737;28;20021;-74
2022/10/04 08:15:32;;;;;;;;;;;17.50;99.90;;;;;;5065537;28;19921;-74
2022/10/04 08:18:16;;;;;;;;;;;17.60;99.90;;;;;;5065320;28;20375;-74
2022/10/04 08:20:54;;;;;;;;;;;17.70;99.90;;;;;;5065134;28;19981;-74
2022/10/04 08:23:32;;;;;;;;;;;17.80;99.90;;;;;;5070941;28;19916;-74
2022/10/04 08:26:10;;;;;;;;;;;17.80;99.90;;;;;;5082435;28;19984;-75
2022/10/04 08:31:42;;;;;;;;;;;17.60;99.90;;;;;;5077536;28;19939;-73
2022/10/04 08:34:27;;;;;;;;;;;17.40;99.90;;;;;;5063005;28;20275;-74
2022/10/04 08:36:53;;;;;;;;;;;17.30;99.90;;;;;;5070833;28;20355;-74
2022/10/04 08:39:37;;;;;;;;;;;17.20;99.90;;;;;;5080404;28;20022;-74
2022/10/04 08:42:15;;;;;;;;;;;17.20;99.90;;;;;;5083464;28;20433;-74
2022/10/04 08:45:00;;;;;;;;;;;17.30;99.90;;;;;;5069923;28;19920;-75
2022/10/04 08:47:35;;;;;;;;;;;17.30;99.90;;;;;;5075409;28;19916;-74
2022/10/04 08:50:19;;;;;;;;;;;17.40;99.90;;;;;;5077609;28;20006;-74
2022/10/04 08:52:58;;;;;;;;;;;17.60;99.90;;;;;;5066481;28;19939;-74
2022/10/04 08:55:26;;;;;;;;;;;17.80;99.90;;;;;;5068171;28;19971;-74
2022/10/04 08:57:55;;;;;;;;;;;18.10;99.90;;;;;;5072762;28;19916;-75
2022/10/04 09:00:30;;;;;;;;;;;18.40;99.90;;;;;;5071613;28;20439;-74
2022/10/04 09:03:14;;;;;;;;;;;18.70;99.90;;;;;;5074321;28;19917;-75
2022/10/04 09:05:46;;;;;;;;;;;19.10;99.90;;;;;;5093760;28;19924;-74
2022/10/04 09:08:26;;;;;;;;;;;19.50;99.90;;;;;;5074009;28;19924;-74
2022/10/04 09:11:00;;;;;;;;;;;20.10;99.90;;;;;;5070247;28;19916;-74
2022/10/04 09:13:37;;;;;;;;;;;21.30;99.90;;;;;;5072891;28;20498;-75
2022/10/04 09:16:12;;;;;;;;;;;21.90;99.90;;;;;;5068190;28;22194;-75
2022/10/04 09:18:47;;;;;;;;;;;22.60;98.90;;;;;;5080465;28;19977;-77
2022/10/04 09:21:19;;;;;;;;;;;23.20;95.50;;;;;;4731171;28;10000256;-75
2022/10/04 09:23:52;;;;;;;;;;;23.80;92.90;;;;;;5067704;28;20067;-74
2022/10/04 09:26:18;;;;;;;;;;;24.20;90.40;;;;;;5066123;28;20182;-75
2022/10/04 09:28:47;;;;;;;;;;;24.70;86.00;;;;;;5065586;28;20054;-75
2022/10/04 09:31:32;;;;;;;;;;;25.20;83.00;;;;;;5062173;28;19916;-75
2022/10/04 09:34:23;;;;;;;;;;;26.40;80.80;;;;;;5063359;28;20002;-74
2022/10/04 09:36:51;;;;;;;;;;;27.70;76.10;;;;;;5044207;28;20295;-74
2022/10/04 09:39:16;;;;;;;;;;;29.00;67.90;;;;;;5064655;28;19924;-74
2022/10/04 09:41:42;;;;;;;;;;;29.60;66.40;;;;;;5072131;28;19929;-74
2022/10/04 09:44:26;;;;;;;;;;;29.80;61.20;;;;;;5063941;28;20005;-76
2022/10/04 09:47:15;;;;;;;;;;;29.70;63.70;;;;;;5047416;28;19944;-75
2022/10/04 09:49:41;;;;;;;;;;;30.10;62.10;;;;;;5056688;28;19912;-76
2022/10/04 09:52:13;;;;;;;;;;;30.40;58.10;;;;;;5063482;28;19989;-75
2022/10/04 09:55:04;;;;;;;;;;;30.90;58.20;;;;;;5048738;28;19913;-76
2022/10/04 09:57:32;;;;;;;;;;;30.80;57.30;;;;;;5045789;28;19920;-75
2022/10/04 10:00:05;;;;;;;;;;;31.70;56.50;;;;;;5062643;28;19912;-76
2022/10/04 10:02:40;;;;;;;;;;;31.60;58.50;;;;;;5043651;28;19917;-75
2022/10/04 10:05:21;;;;;;;;;;;31.10;54.10;;;;;;5063598;28;20004;-75
2022/10/04 10:07:49;;;;;;;;;;;30.90;57.70;;;;;;5045005;28;20103;-75
2022/10/04 10:13:39;;;;;;;;;;;31.20;56.40;;;;;;5065828;28;20429;-75
2022/10/04 10:16:17;;;;;;;;;;;30.60;54.90;;;;;;5068818;28;20209;-76
2022/10/04 10:18:55;;;;;;;;;;;31.20;54.50;;;;;;5065349;28;19924;-76
2022/10/04 10:21:44;;;;;;;;;;;32.10;52.90;;;;;;5062581;28;19916;-76
2022/10/04 10:24:29;;;;;;;;;;;32.00;52.20;;;;;;5052536;28;19920;-76
2022/10/04 10:27:06;;;;;;;;;;;29.60;54.40;;;;;;5069008;28;20218;-75
2022/10/04 10:29:50;;;;;;;;;;;26.60;58.20;;;;;;5067001;28;20016;-75
2022/10/04 10:32:20;;;;;;;;;;;25.10;62.60;;;;;;5064485;28;19999;-75
2022/10/04 10:34:57;;;;;;;;;;;23.60;67.20;;;;;;5069495;28;20372;-75
2022/10/04 10:37:42;;;;;;;;;;;22.60;74.50;;;;;;5066729;28;20683;-75
2022/10/04 10:40:08;;;;;;;;;;;21.70;77.80;;;;;;5069007;28;20187;-74
2022/10/04 10:42:53;;;;;;;;;;;21.10;82.20;;;;;;5065158;28;19921;-75
2022/10/04 10:45:20;;;;;;;;;;;20.60;89.10;;;;;;5052944;28;20023;-75
2022/10/04 10:47:51;;;;;;;;;;;20.10;90.90;;;;;;5067663;28;19915;-74
2022/10/04 10:50:29;;;;;;;;;;;19.80;93.00;;;;;;5061599;28;19923;-77
2022/10/04 10:52:58;;;;;;;;;;;19.80;94.90;;;;;;5065953;28;19995;-75
2022/10/04 10:55:29;;;;;;;;;;;19.70;94.40;;;;;;5072229;28;19943;-77
2022/10/04 10:58:27;;;;;;;;;;;19.70;96.80;;;;;;5087830;28;19931;-75
2022/10/04 11:01:16;;;;;;;;;;;19.90;98.90;;;;;;5034816;28;19942;-77
2022/10/04 11:03:47;;;;;;;;;;;19.90;97.70;;;;;;5064118;28;20092;-74
2022/10/04 11:06:18;;;;;;;;;;;19.90;98.40;;;;;;5064613;28;19916;-76
2022/10/04 11:08:44;;;;;;;;;;;20.10;99.90;;;;;;5065733;28;19917;-74
2022/10/04 11:11:28;;;;;;;;;;;20.20;99.90;;;;;;5075053;28;19916;-75
2022/10/04 11:14:10;;;;;;;;;;;20.00;99.30;;;;;;5071649;28;20432;-74
2022/10/04 11:16:50;;;;;;;;;;;19.90;99.90;;;;;;5069247;28;19928;-74
2022/10/04 11:19:28;;;;;;;;;;;19.50;99.80;;;;;;5075294;28;19916;-74
2022/10/04 11:21:53;;;;;;;;;;;19.60;99.90;;;;;;5078505;28;20410;-75
2022/10/04 11:24:19;;;;;;;;;;;19.80;99.90;;;;;;5084527;28;19916;-76
2022/10/04 11:27:09;;;;;;;;;;;19.90;99.90;;;;;;5083300;28;19983;-77
2022/10/04 11:29:35;;;;;;;;;;;19.90;99.90;;;;;;5082796;28;20077;-75
2022/10/04 11:32:00;;;;;;;;;;;20.00;99.90;;;;;;5083592;28;20490;-75
2022/10/04 11:34:29;;;;;;;;;;;20.10;99.90;;;;;;5075125;28;19927;-75
2022/10/04 11:37:06;;;;;;;;;;;20.20;99.90;;;;;;5076128;28;19935;-75
2022/10/04 11:39:41;;;;;;;;;;;20.30;99.90;;;;;;5061492;28;19917;-74
2022/10/04 11:42:06;;;;;;;;;;;20.60;99.40;;;;;;5092040;28;19924;-75
2022/10/04 11:44:35;;;;;;;;;;;21.20;99.50;;;;;;5079225;28;20289;-75
2022/10/04 11:47:08;;;;;;;;;;;21.90;98.80;;;;;;5078599;28;20148;-75
2022/10/04 11:49:34;;;;;;;;;;;22.50;95.60;;;;;;4713871;28;9999911;-75
2022/10/04 11:52:12;;;;;;;;;;;22.60;92.90;;;;;;5073283;28;19916;-75
2022/10/04 11:54:37;;;;;;;;;;;22.60;94.00;;;;;;5076541;28;19948;-75
2022/10/04 11:57:09;;;;;;;;;;;22.70;91.10;;;;;;5082177;28;20411;-75
2022/10/04 11:59:43;;;;;;;;;;;22.40;93.30;;;;;;5070678;28;20018;-75
2022/10/04 12:02:27;;;;;;;;;;;22.40;95.90;;;;;;5071791;28;19999;-75
2022/10/04 12:04:53;;;;;;;;;;;22.20;93.40;;;;;;5079032;28;20011;-75
2022/10/04 12:07:32;;;;;;;;;;;21.80;93.50;;;;;;5075658;28;19927;-75
2022/10/04 12:10:08;;;;;;;;;;;21.60;93.70;;;;;;5082544;28;19916;-75
2022/10/04 12:12:39;;;;;;;;;;;21.60;94.20;;;;;;5083351;28;19923;-75
2022/10/04 12:15:21;;;;;;;;;;;21.70;94.20;;;;;;5080091;28;19929;-75
2022/10/04 12:17:46;;;;;;;;;;;21.40;94.60;;;;;;5084065;28;19916;-76
2022/10/04 12:20:18;;;;;;;;;;;20.80;95.80;;;;;;5073981;28;19992;-74
2022/10/04 12:22:59;;;;;;;;;;;20.50;96.90;;;;;;5072695;28;20001;-74
2022/10/04 12:25:27;;;;;;;;;;;20.20;97.50;;;;;;5068695;28;20308;-74
2022/10/04 12:28:13;;;;;;;;;;;20.00;99.70;;;;;;5074714;28;19945;-74
2022/10/04 12:30:57;;;;;;;;;;;19.90;99.90;;;;;;5030853;28;19924;-73
2022/10/04 12:33:22;;;;;;;;;;;19.80;99.90;;;;;;5069603;28;19916;-74
2022/10/04 12:35:57;;;;;;;;;;;20.00;99.90;;;;;;5074029;28;19926;-74
2022/10/04 12:38:37;;;;;;;;;;;20.20;99.90;;;;;;5071399;28;20002;-73
2022/10/04 12:41:13;;;;;;;;;;;20.40;99.90;;;;;;5070485;28;19916;-75
2022/10/04 12:43:55;;;;;;;;;;;20.50;99.90;;;;;;5068796;28;19916;-74
2022/10/04 12:46:24;;;;;;;;;;;19.90;99.90;;;;;;5085015;28;19947;-74
2022/10/04 12:49:01;;;;;;;;;;;19.30;99.90;;;;;;5070158;28;20011;-74
2022/10/04 12:51:35;;;;;;;;;;;18.80;99.90;;;;;;5081592;28;19916;-75
2022/10/04 12:54:10;;;;;;;;;;;18.50;99.90;;;;;;5078142;28;20135;-74
2022/10/04 12:56:41;;;;;;;;;;;18.40;99.90;;;;;;5078827;28;19931;-74
2022/10/04 12:59:30;;;;;;;;;;;18.30;99.90;;;;;;5073905;28;19916;-74
2022/10/04 13:02:02;;;;;;;;;;;18.30;99.90;;;;;;5066083;28;19916;-74
2022/10/04 13:04:34;;;;;;;;;;;18.30;99.90;;;;;;5070225;28;19946;-74
2022/10/04 13:07:12;;;;;;;;;;;18.40;99.90;;;;;;5075071;28;19916;-74
2022/10/04 13:09:45;;;;;;;;;;;18.50;99.90;;;;;;5071423;28;19996;-74
2022/10/04 13:12:37;;;;;;;;;;;18.50;99.90;;;;;;5067311;28;19916;-74
2022/10/04 13:15:11;;;;;;;;;;;18.50;99.90;;;;;;5067947;28;19916;-74
2022/10/04 13:17:48;;;;;;;;;;;18.70;99.90;;;;;;5071314;28;19931;-75
2022/10/04 13:20:25;;;;;;;;;;;19.00;99.90;;;;;;5067842;28;20464;-74
2022/10/04 13:23:18;;;;;;;;;;;19.10;99.90;;;;;;5066939;28;19947;-75
2022/10/04 13:25:53;;;;;;;;;;;19.20;99.90;;;;;;5068203;28;19967;-75
2022/10/04 13:28:30;;;;;;;;;;;19.20;99.90;;;;;;5074778;28;19912;-75
2022/10/04 13:31:15;;;;;;;;;;;19.10;99.90;;;;;;5072683;28;19916;-75
2022/10/04 13:33:43;;;;;;;;;;;18.90;99.90;;;;;;5083518;28;19916;-75
2022/10/04 13:36:28;;;;;;;;;;;19.10;99.90;;;;;;5062703;28;20178;-75
2022/10/04 13:39:06;;;;;;;;;;;19.00;99.90;;;;;;5075103;28;19942;-75
2022/10/04 13:41:46;;;;;;;;;;;19.10;99.90;;;;;;5066061;28;19959;-75
2022/10/04 13:44:35;;;;;;;;;;;19.00;99.90;;;;;;5077950;28;19927;-75
2022/10/04 13:47:05;;;;;;;;;;;18.70;99.90;;;;;;5041460;28;19988;-75
2022/10/04 13:49:41;;;;;;;;;;;18.50;99.90;;;;;;5061932;28;20380;-74
2022/10/04 13:58:07;;;;;;;;;;;17.80;99.90;;;;;;5074106;28;19957;-74
2022/10/04 14:00:33;;;;;;;;;;;17.70;99.90;;;;;;5068668;28;19916;-73
2022/10/04 14:02:58;;;;;;;;;;;17.70;99.90;;;;;;5055271;28;20365;-74
2022/10/04 14:05:43;;;;;;;;;;;17.60;99.90;;;;;;5056674;28;19927;-74
2022/10/04 14:08:14;;;;;;;;;;;17.70;99.90;;;;;;5065200;28;19924;-74
2022/10/04 14:10:59;;;;;;;;;;;17.70;99.90;;;;;;5078534;28;19932;-74
2022/10/04 14:13:42;;;;;;;;;;;17.70;99.90;;;;;;5061525;28;19916;-73
2022/10/04 14:16:17;;;;;;;;;;;17.80;99.90;;;;;;5079479;28;19935;-73
2022/10/04 14:19:02;;;;;;;;;;;18.00;99.90;;;;;;5080090;28;20363;-74
2022/10/04 14:21:31;;;;;;;;;;;18.00;99.90;;;;;;5057980;28;19967;-74
2022/10/04 14:24:06;;;;;;;;;;;17.90;99.90;;;;;;5078775;28;20292;-73
2022/10/04 14:26:44;;;;;;;;;;;17.80;99.90;;;;;;4820998;28;10000057;-74
2022/10/04 14:29:15;;;;;;;;;;;17.80;99.90;;;;;;5058706;28;20465;-73
2022/10/04 14:31:45;;;;;;;;;;;17.70;99.90;;;;;;5059210;28;20026;-74
2022/10/04 14:34:14;;;;;;;;;;;17.80;99.90;;;;;;5060951;28;19916;-74
2022/10/04 14:36:42;;;;;;;;;;;18.00;99.90;;;;;;5057746;28;19924;-74
2022/10/04 14:39:08;;;;;;;;;;;18.30;99.90;;;;;;5080320;28;19913;-74
2022/10/04 14:41:48;;;;;;;;;;;18.60;99.90;;;;;;5078144;28;20467;-73
2022/10/04 14:44:17;;;;;;;;;;;18.80;99.90;;;;;;5062871;28;19917;-74
2022/10/04 14:47:01;;;;;;;;;;;18.80;99.90;;;;;;5089595;28;20000;-74
2022/10/04 14:49:36;;;;;;;;;;;18.50;99.90;;;;;;5088335;28;19916;-73
2022/10/04 14:52:05;;;;;;;;;;;18.40;99.90;;;;;;5079585;28;20003;-74
2022/10/04 14:54:31;;;;;;;;;;;18.10;99.90;;;;;;5084200;28;19949;-73
2022/10/04 14:56:59;;;;;;;;;;;18.00;99.90;;;;;;5091870;28;20377;-74
2022/10/04 14:59:44;;;;;;;;;;;17.90;99.90;;;;;;5079986;28;19916;-74
2022/10/04 15:02:32;;;;;;;;;;;17.90;99.90;;;;;;5087512;28;20427;-74
2022/10/04 15:05:27;;;;;;;;;;;17.80;99.90;;;;;;5076321;28;19916;-74